sensor_id;sensor_type;location;lat;lon;timestamp;P1;durP1;ratioP1;P2;durP2;ratioP2
54699;SDS011;40599;53.132;6.090;2022-08-03T00:01:40;6.97;;;3.67;;
54699;SDS011;40599;53.132;6.090;2022-08-03T00:04:07;7.23;;;3.60;;
54699;SDS011;40599;53.132;6.090;2022-08-03T00:06:33;9.20;;;3.80;;
54699;SDS011;40599;53.132;6.090;2022-08-03T00:08:59;15.20;;;4.15;;
54699;SDS011;40599;53.132;6.090;2022-08-03T00:11:25;9.82;;;3.70;;
54699;SDS011;40599;53.132;6.090;2022-08-03T00:13:51;9.02;;;3.92;;
54699;SDS011;40599;53.132;6.090;2022-08-03T00:16:17;9.25;;;3.30;;
54699;SDS011;40599;53.132;6.090;2022-08-03T00:18:43;12.18;;;3.65;;
54699;SDS011;40599;53.132;6.090;2022-08-03T00:21:09;11.90;;;3.78;;
54699;SDS011;40599;53.132;6.090;2022-08-03T00:23:35;11.43;;;4.22;;
54699;SDS011;40599;53.132;6.090;2022-08-03T00:26:01;11.88;;;4.35;;
54699;SDS011;40599;53.132;6.090;2022-08-03T00:28:27;9.45;;;4.53;;
54699;SDS011;40599;53.132;6.090;2022-08-03T00:30:53;9.77;;;3.65;;
54699;SDS011;40599;53.132;6.090;2022-08-03T00:33:20;10.97;;;3.67;;
54699;SDS011;40599;53.132;6.090;2022-08-03T00:35:46;7.95;;;3.70;;
54699;SDS011;40599;53.132;6.090;2022-08-03T00:38:12;12.45;;;3.90;;
54699;SDS011;40599;53.132;6.090;2022-08-03T00:40:38;10.55;;;3.35;;
54699;SDS011;40599;53.132;6.090;2022-08-03T00:43:04;14.38;;;3.58;;
54699;SDS011;40599;53.132;6.090;2022-08-03T00:45:33;12.10;;;3.60;;
54699;SDS011;40599;53.132;6.090;2022-08-03T00:48:00;8.10;;;3.10;;
54699;SDS011;40599;53.132;6.090;2022-08-03T00:50:27;7.25;;;3.25;;
54699;SDS011;40599;53.132;6.090;2022-08-03T00:52:55;10.40;;;3.57;;
54699;SDS011;40599;53.132;6.090;2022-08-03T00:55:22;7.90;;;3.20;;
54699;SDS011;40599;53.132;6.090;2022-08-03T00:57:48;10.43;;;3.90;;
54699;SDS011;40599;53.132;6.090;2022-08-03T01:00:18;9.38;;;3.83;;
54699;SDS011;40599;53.132;6.090;2022-08-03T01:02:45;8.50;;;4.10;;
54699;SDS011;40599;53.132;6.090;2022-08-03T01:05:11;16.10;;;3.75;;
54699;SDS011;40599;53.132;6.090;2022-08-03T01:07:59;8.27;;;3.10;;
54699;SDS011;40599;53.132;6.090;2022-08-03T01:16:09;7.20;;;3.43;;
54699;SDS011;40599;53.132;6.090;2022-08-03T01:18:58;9.43;;;3.27;;
54699;SDS011;40599;53.132;6.090;2022-08-03T01:33:05;11.97;;;3.17;;
54699;SDS011;40599;53.132;6.090;2022-08-03T01:35:21;11.60;;;3.30;;
54699;SDS011;40599;53.132;6.090;2022-08-03T01:37:54;7.43;;;3.07;;
54699;SDS011;40599;53.132;6.090;2022-08-03T01:40:22;11.77;;;3.23;;
54699;SDS011;40599;53.132;6.090;2022-08-03T01:42:50;14.57;;;3.10;;
54699;SDS011;40599;53.132;6.090;2022-08-03T01:45:18;9.37;;;2.70;;
54699;SDS011;40599;53.132;6.090;2022-08-03T01:47:46;8.50;;;3.33;;
54699;SDS011;40599;53.132;6.090;2022-08-03T01:50:14;9.23;;;3.30;;
54699;SDS011;40599;53.132;6.090;2022-08-03T01:55:08;6.30;;;2.97;;
54699;SDS011;40599;53.132;6.090;2022-08-03T01:57:36;10.43;;;3.03;;
54699;SDS011;40599;53.132;6.090;2022-08-03T02:00:03;7.40;;;2.77;;
54699;SDS011;40599;53.132;6.090;2022-08-03T02:02:31;11.03;;;3.23;;
54699;SDS011;40599;53.132;6.090;2022-08-03T02:04:58;9.52;;;2.80;;
54699;SDS011;40599;53.132;6.090;2022-08-03T02:07:25;7.97;;;2.90;;
54699;SDS011;40599;53.132;6.090;2022-08-03T02:09:53;13.57;;;3.20;;
54699;SDS011;40599;53.132;6.090;2022-08-03T02:12:21;9.60;;;2.90;;
54699;SDS011;40599;53.132;6.090;2022-08-03T02:14:49;8.67;;;3.03;;
54699;SDS011;40599;53.132;6.090;2022-08-03T02:17:15;9.77;;;3.65;;
54699;SDS011;40599;53.132;6.090;2022-08-03T02:22:09;12.30;;;3.40;;
54699;SDS011;40599;53.132;6.090;2022-08-03T02:24:37;9.73;;;3.30;;
54699;SDS011;40599;53.132;6.090;2022-08-03T02:27:04;6.60;;;2.92;;
54699;SDS011;40599;53.132;6.090;2022-08-03T02:29:37;6.57;;;2.70;;
54699;SDS011;40599;53.132;6.090;2022-08-03T02:32:05;15.50;;;3.17;;
54699;SDS011;40599;53.132;6.090;2022-08-03T02:34:32;12.53;;;3.10;;
54699;SDS011;40599;53.132;6.090;2022-08-03T02:36:59;8.47;;;3.40;;
54699;SDS011;40599;53.132;6.090;2022-08-03T02:39:29;8.57;;;3.20;;
54699;SDS011;40599;53.132;6.090;2022-08-03T02:41:58;11.43;;;3.33;;
54699;SDS011;40599;53.132;6.090;2022-08-03T02:44:29;15.23;;;4.00;;
54699;SDS011;40599;53.132;6.090;2022-08-03T02:47:02;7.33;;;3.07;;
54699;SDS011;40599;53.132;6.090;2022-08-03T02:49:31;10.67;;;3.13;;
54699;SDS011;40599;53.132;6.090;2022-08-03T02:51:59;11.63;;;3.00;;
54699;SDS011;40599;53.132;6.090;2022-08-03T02:54:26;13.00;;;3.20;;
54699;SDS011;40599;53.132;6.090;2022-08-03T02:56:53;9.73;;;3.10;;
54699;SDS011;40599;53.132;6.090;2022-08-03T02:59:22;15.73;;;3.37;;
54699;SDS011;40599;53.132;6.090;2022-08-03T03:01:49;10.80;;;3.50;;
54699;SDS011;40599;53.132;6.090;2022-08-03T03:04:18;11.17;;;3.40;;
54699;SDS011;40599;53.132;6.090;2022-08-03T03:06:45;11.60;;;3.60;;
54699;SDS011;40599;53.132;6.090;2022-08-03T03:09:10;8.82;;;3.05;;
54699;SDS011;40599;53.132;6.090;2022-08-03T03:11:37;13.02;;;3.45;;
54699;SDS011;40599;53.132;6.090;2022-08-03T03:14:03;11.02;;;3.33;;
54699;SDS011;40599;53.132;6.090;2022-08-03T03:16:30;15.82;;;3.60;;
54699;SDS011;40599;53.132;6.090;2022-08-03T03:18:56;10.17;;;3.10;;
54699;SDS011;40599;53.132;6.090;2022-08-03T03:21:23;11.30;;;3.20;;
54699;SDS011;40599;53.132;6.090;2022-08-03T03:23:51;11.40;;;3.20;;
54699;SDS011;40599;53.132;6.090;2022-08-03T03:28:43;13.93;;;3.67;;
54699;SDS011;40599;53.132;6.090;2022-08-03T03:31:10;12.75;;;3.10;;
54699;SDS011;40599;53.132;6.090;2022-08-03T03:33:36;10.32;;;3.15;;
54699;SDS011;40599;53.132;6.090;2022-08-03T03:36:03;8.40;;;3.57;;
54699;SDS011;40599;53.132;6.090;2022-08-03T03:38:30;9.77;;;3.57;;
54699;SDS011;40599;53.132;6.090;2022-08-03T03:40:57;11.52;;;3.42;;
54699;SDS011;40599;53.132;6.090;2022-08-03T03:45:49;9.93;;;3.13;;
54699;SDS011;40599;53.132;6.090;2022-08-03T03:48:17;12.23;;;3.67;;
54699;SDS011;40599;53.132;6.090;2022-08-03T03:50:44;10.80;;;3.90;;
54699;SDS011;40599;53.132;6.090;2022-08-03T03:53:10;12.02;;;3.42;;
54699;SDS011;40599;53.132;6.090;2022-08-03T03:55:37;11.00;;;3.67;;
54699;SDS011;40599;53.132;6.090;2022-08-03T04:00:30;11.50;;;3.83;;
54699;SDS011;40599;53.132;6.090;2022-08-03T04:02:56;13.95;;;4.05;;
54699;SDS011;40599;53.132;6.090;2022-08-03T04:05:22;10.73;;;3.38;;
54699;SDS011;40599;53.132;6.090;2022-08-03T04:08:07;10.50;;;3.30;;
54699;SDS011;40599;53.132;6.090;2022-08-03T04:13:42;10.87;;;3.40;;
54699;SDS011;40599;53.132;6.090;2022-08-03T04:16:13;11.77;;;4.10;;
54699;SDS011;40599;53.132;6.090;2022-08-03T04:18:43;10.23;;;4.00;;
54699;SDS011;40599;53.132;6.090;2022-08-03T04:21:14;12.83;;;4.03;;
54699;SDS011;40599;53.132;6.090;2022-08-03T04:23:43;13.50;;;4.07;;
54699;SDS011;40599;53.132;6.090;2022-08-03T04:26:14;10.80;;;3.83;;
54699;SDS011;40599;53.132;6.090;2022-08-03T04:28:43;9.23;;;3.63;;
54699;SDS011;40599;53.132;6.090;2022-08-03T04:31:11;16.83;;;3.90;;
54699;SDS011;40599;53.132;6.090;2022-08-03T04:33:38;11.27;;;4.17;;
54699;SDS011;40599;53.132;6.090;2022-08-03T04:36:07;13.47;;;3.77;;
54699;SDS011;40599;53.132;6.090;2022-08-03T04:38:36;12.63;;;4.50;;
54699;SDS011;40599;53.132;6.090;2022-08-03T04:41:04;13.87;;;4.70;;
54699;SDS011;40599;53.132;6.090;2022-08-03T04:43:31;13.10;;;4.07;;
54699;SDS011;40599;53.132;6.090;2022-08-03T04:45:58;13.77;;;3.88;;
54699;SDS011;40599;53.132;6.090;2022-08-03T04:48:25;10.33;;;4.10;;
54699;SDS011;40599;53.132;6.090;2022-08-03T04:53:18;14.50;;;4.23;;
54699;SDS011;40599;53.132;6.090;2022-08-03T04:55:44;18.73;;;4.40;;
54699;SDS011;40599;53.132;6.090;2022-08-03T04:58:10;18.13;;;4.68;;
54699;SDS011;40599;53.132;6.090;2022-08-03T05:00:36;10.10;;;3.63;;
54699;SDS011;40599;53.132;6.090;2022-08-03T05:03:02;12.73;;;3.70;;
54699;SDS011;40599;53.132;6.090;2022-08-03T05:05:28;10.52;;;3.83;;
54699;SDS011;40599;53.132;6.090;2022-08-03T05:07:53;16.60;;;4.30;;
54699;SDS011;40599;53.132;6.090;2022-08-03T05:10:20;14.88;;;4.85;;
54699;SDS011;40599;53.132;6.090;2022-08-03T05:12:47;10.00;;;3.97;;
54699;SDS011;40599;53.132;6.090;2022-08-03T05:15:13;16.00;;;4.23;;
54699;SDS011;40599;53.132;6.090;2022-08-03T05:17:39;10.53;;;4.07;;
54699;SDS011;40599;53.132;6.090;2022-08-03T05:20:05;9.80;;;4.43;;
54699;SDS011;40599;53.132;6.090;2022-08-03T05:22:31;12.30;;;4.93;;
54699;SDS011;40599;53.132;6.090;2022-08-03T05:24:57;16.42;;;4.00;;
54699;SDS011;40599;53.132;6.090;2022-08-03T05:27:24;15.53;;;4.43;;
54699;SDS011;40599;53.132;6.090;2022-08-03T05:29:50;14.03;;;4.40;;
54699;SDS011;40599;53.132;6.090;2022-08-03T05:32:16;16.33;;;4.38;;
54699;SDS011;40599;53.132;6.090;2022-08-03T05:34:42;13.90;;;4.40;;
54699;SDS011;40599;53.132;6.090;2022-08-03T05:37:09;12.85;;;4.15;;
54699;SDS011;40599;53.132;6.090;2022-08-03T05:39:34;14.75;;;4.30;;
54699;SDS011;40599;53.132;6.090;2022-08-03T05:42:00;13.63;;;4.23;;
54699;SDS011;40599;53.132;6.090;2022-08-03T05:44:26;15.65;;;4.75;;
54699;SDS011;40599;53.132;6.090;2022-08-03T05:46:53;17.48;;;4.18;;
54699;SDS011;40599;53.132;6.090;2022-08-03T05:51:45;14.60;;;4.33;;
54699;SDS011;40599;53.132;6.090;2022-08-03T05:54:10;9.32;;;4.00;;
54699;SDS011;40599;53.132;6.090;2022-08-03T05:56:37;18.65;;;4.55;;
54699;SDS011;40599;53.132;6.090;2022-08-03T05:59:05;20.50;;;4.33;;
54699;SDS011;40599;53.132;6.090;2022-08-03T06:01:31;11.00;;;4.13;;
54699;SDS011;40599;53.132;6.090;2022-08-03T06:03:57;9.85;;;4.10;;
54699;SDS011;40599;53.132;6.090;2022-08-03T06:06:23;18.45;;;4.07;;
54699;SDS011;40599;53.132;6.090;2022-08-03T06:08:49;11.05;;;4.75;;
54699;SDS011;40599;53.132;6.090;2022-08-03T06:11:14;14.57;;;4.20;;
54699;SDS011;40599;53.132;6.090;2022-08-03T06:13:41;10.73;;;4.43;;
54699;SDS011;40599;53.132;6.090;2022-08-03T06:16:07;13.77;;;4.13;;
54699;SDS011;40599;53.132;6.090;2022-08-03T06:18:33;14.15;;;4.68;;
54699;SDS011;40599;53.132;6.090;2022-08-03T06:21:00;10.23;;;4.25;;
54699;SDS011;40599;53.132;6.090;2022-08-03T06:23:26;16.13;;;5.00;;
54699;SDS011;40599;53.132;6.090;2022-08-03T06:25:52;17.23;;;4.77;;
54699;SDS011;40599;53.132;6.090;2022-08-03T06:28:18;11.50;;;5.03;;
54699;SDS011;40599;53.132;6.090;2022-08-03T06:30:44;13.20;;;5.07;;
54699;SDS011;40599;53.132;6.090;2022-08-03T06:33:10;13.25;;;5.22;;
54699;SDS011;40599;53.132;6.090;2022-08-03T06:35:36;10.73;;;4.80;;
54699;SDS011;40599;53.132;6.090;2022-08-03T06:38:02;14.93;;;5.57;;
54699;SDS011;40599;53.132;6.090;2022-08-03T06:40:28;12.27;;;5.15;;
54699;SDS011;40599;53.132;6.090;2022-08-03T06:42:56;13.87;;;6.10;;
54699;SDS011;40599;53.132;6.090;2022-08-03T06:45:23;19.90;;;6.73;;
54699;SDS011;40599;53.132;6.090;2022-08-03T06:47:58;20.23;;;7.47;;
54699;SDS011;40599;53.132;6.090;2022-08-03T06:50:30;15.20;;;6.50;;
54699;SDS011;40599;53.132;6.090;2022-08-03T06:55:22;22.67;;;7.20;;
54699;SDS011;40599;53.132;6.090;2022-08-03T06:57:48;17.60;;;7.30;;
54699;SDS011;40599;53.132;6.090;2022-08-03T07:00:14;15.95;;;7.50;;
54699;SDS011;40599;53.132;6.090;2022-08-03T07:02:40;16.95;;;7.22;;
54699;SDS011;40599;53.132;6.090;2022-08-03T07:05:07;20.55;;;7.15;;
54699;SDS011;40599;53.132;6.090;2022-08-03T07:07:33;19.27;;;7.40;;
54699;SDS011;40599;53.132;6.090;2022-08-03T07:10:00;15.10;;;6.85;;
54699;SDS011;40599;53.132;6.090;2022-08-03T07:12:26;23.92;;;7.32;;
54699;SDS011;40599;53.132;6.090;2022-08-03T07:14:53;15.40;;;7.07;;
54699;SDS011;40599;53.132;6.090;2022-08-03T07:17:20;26.57;;;7.30;;
54699;SDS011;40599;53.132;6.090;2022-08-03T07:19:45;20.02;;;7.60;;
54699;SDS011;40599;53.132;6.090;2022-08-03T07:22:11;21.10;;;7.03;;
54699;SDS011;40599;53.132;6.090;2022-08-03T07:24:37;18.58;;;6.70;;
54699;SDS011;40599;53.132;6.090;2022-08-03T07:27:03;17.35;;;7.57;;
54699;SDS011;40599;53.132;6.090;2022-08-03T07:29:28;11.88;;;6.28;;
54699;SDS011;40599;53.132;6.090;2022-08-03T07:31:54;13.02;;;6.05;;
54699;SDS011;40599;53.132;6.090;2022-08-03T07:34:20;20.50;;;7.28;;
54699;SDS011;40599;53.132;6.090;2022-08-03T07:36:46;25.05;;;6.63;;
54699;SDS011;40599;53.132;6.090;2022-08-03T07:39:11;17.08;;;5.82;;
54699;SDS011;40599;53.132;6.090;2022-08-03T07:41:38;16.60;;;5.70;;
54699;SDS011;40599;53.132;6.090;2022-08-03T07:44:06;16.25;;;6.20;;
54699;SDS011;40599;53.132;6.090;2022-08-03T07:46:32;17.90;;;6.67;;
54699;SDS011;40599;53.132;6.090;2022-08-03T07:48:58;16.52;;;6.35;;
54699;SDS011;40599;53.132;6.090;2022-08-03T07:51:24;15.93;;;5.72;;
54699;SDS011;40599;53.132;6.090;2022-08-03T07:53:49;18.23;;;6.50;;
54699;SDS011;40599;53.132;6.090;2022-08-03T07:56:15;18.75;;;6.03;;
54699;SDS011;40599;53.132;6.090;2022-08-03T07:58:41;19.67;;;6.72;;
54699;SDS011;40599;53.132;6.090;2022-08-03T08:01:07;15.98;;;6.22;;
54699;SDS011;40599;53.132;6.090;2022-08-03T08:03:33;22.05;;;7.88;;
54699;SDS011;40599;53.132;6.090;2022-08-03T08:05:58;13.95;;;6.68;;
54699;SDS011;40599;53.132;6.090;2022-08-03T08:08:24;13.52;;;5.80;;
54699;SDS011;40599;53.132;6.090;2022-08-03T08:10:50;15.25;;;7.47;;
54699;SDS011;40599;53.132;6.090;2022-08-03T08:13:17;22.97;;;8.37;;
54699;SDS011;40599;53.132;6.090;2022-08-03T08:15:43;20.58;;;7.38;;
54699;SDS011;40599;53.132;6.090;2022-08-03T08:18:09;21.73;;;8.02;;
54699;SDS011;40599;53.132;6.090;2022-08-03T08:20:35;21.60;;;7.47;;
54699;SDS011;40599;53.132;6.090;2022-08-03T08:23:05;14.53;;;7.10;;
54699;SDS011;40599;53.132;6.090;2022-08-03T08:25:31;20.60;;;7.70;;
54699;SDS011;40599;53.132;6.090;2022-08-03T08:27:58;19.90;;;8.20;;
54699;SDS011;40599;53.132;6.090;2022-08-03T08:30:28;20.90;;;7.67;;
54699;SDS011;40599;53.132;6.090;2022-08-03T08:32:55;19.13;;;7.77;;
54699;SDS011;40599;53.132;6.090;2022-08-03T08:35:21;19.63;;;8.40;;
54699;SDS011;40599;53.132;6.090;2022-08-03T08:37:48;16.63;;;7.57;;
54699;SDS011;40599;53.132;6.090;2022-08-03T08:42:42;24.60;;;7.83;;
54699;SDS011;40599;53.132;6.090;2022-08-03T08:45:09;23.27;;;9.47;;
54699;SDS011;40599;53.132;6.090;2022-08-03T08:47:37;24.03;;;8.43;;
54699;SDS011;40599;53.132;6.090;2022-08-03T08:50:03;21.53;;;8.60;;
54699;SDS011;40599;53.132;6.090;2022-08-03T08:52:31;28.40;;;9.00;;
54699;SDS011;40599;53.132;6.090;2022-08-03T08:54:58;19.50;;;9.90;;
54699;SDS011;40599;53.132;6.090;2022-08-03T08:57:25;21.20;;;8.87;;
54699;SDS011;40599;53.132;6.090;2022-08-03T08:59:53;21.40;;;8.77;;
54699;SDS011;40599;53.132;6.090;2022-08-03T09:02:21;24.13;;;9.80;;
54699;SDS011;40599;53.132;6.090;2022-08-03T09:04:47;19.83;;;8.07;;
54699;SDS011;40599;53.132;6.090;2022-08-03T09:07:13;20.00;;;8.68;;
54699;SDS011;40599;53.132;6.090;2022-08-03T09:09:40;21.27;;;9.00;;
54699;SDS011;40599;53.132;6.090;2022-08-03T09:14:33;18.92;;;8.40;;
54699;SDS011;40599;53.132;6.090;2022-08-03T09:17:00;25.17;;;10.50;;
54699;SDS011;40599;53.132;6.090;2022-08-03T09:19:27;26.43;;;9.93;;
54699;SDS011;40599;53.132;6.090;2022-08-03T09:24:53;28.47;;;11.17;;
54699;SDS011;40599;53.132;6.090;2022-08-03T09:27:20;23.53;;;9.83;;
54699;SDS011;40599;53.132;6.090;2022-08-03T09:29:46;21.98;;;10.18;;
54699;SDS011;40599;53.132;6.090;2022-08-03T09:32:13;23.90;;;11.10;;
54699;SDS011;40599;53.132;6.090;2022-08-03T09:34:39;22.05;;;9.93;;
54699;SDS011;40599;53.132;6.090;2022-08-03T09:37:11;20.00;;;10.23;;
54699;SDS011;40599;53.132;6.090;2022-08-03T09:39:38;21.53;;;8.73;;
54699;SDS011;40599;53.132;6.090;2022-08-03T09:42:12;23.75;;;8.75;;
54699;SDS011;40599;53.132;6.090;2022-08-03T09:44:39;25.47;;;9.57;;
54699;SDS011;40599;53.132;6.090;2022-08-03T09:47:08;17.50;;;9.10;;
54699;SDS011;40599;53.132;6.090;2022-08-03T09:49:35;23.13;;;8.30;;
54699;SDS011;40599;53.132;6.090;2022-08-03T09:52:10;25.37;;;9.87;;
54699;SDS011;40599;53.132;6.090;2022-08-03T09:54:37;18.95;;;9.43;;
54699;SDS011;40599;53.132;6.090;2022-08-03T09:57:04;23.10;;;9.43;;
54699;SDS011;40599;53.132;6.090;2022-08-03T09:59:31;21.85;;;10.60;;
54699;SDS011;40599;53.132;6.090;2022-08-03T10:01:57;23.37;;;9.90;;
54699;SDS011;40599;53.132;6.090;2022-08-03T10:04:24;20.60;;;10.10;;
54699;SDS011;40599;53.132;6.090;2022-08-03T10:07:04;25.80;;;10.30;;
54699;SDS011;40599;53.132;6.090;2022-08-03T10:09:30;21.60;;;9.90;;
54699;SDS011;40599;53.132;6.090;2022-08-03T10:11:56;24.10;;;9.50;;
54699;SDS011;40599;53.132;6.090;2022-08-03T10:14:23;25.43;;;10.17;;
54699;SDS011;40599;53.132;6.090;2022-08-03T10:16:54;27.47;;;10.70;;
54699;SDS011;40599;53.132;6.090;2022-08-03T10:19:20;23.60;;;10.23;;
54699;SDS011;40599;53.132;6.090;2022-08-03T10:24:12;21.17;;;10.37;;
54699;SDS011;40599;53.132;6.090;2022-08-03T10:26:43;22.63;;;9.20;;
54699;SDS011;40599;53.132;6.090;2022-08-03T10:29:19;22.90;;;9.77;;
54699;SDS011;40599;53.132;6.090;2022-08-03T10:31:46;18.67;;;10.33;;
54699;SDS011;40599;53.132;6.090;2022-08-03T10:34:14;22.90;;;9.70;;
54699;SDS011;40599;53.132;6.090;2022-08-03T10:36:42;23.23;;;10.20;;
54699;SDS011;40599;53.132;6.090;2022-08-03T10:39:08;21.90;;;9.83;;
54699;SDS011;40599;53.132;6.090;2022-08-03T10:44:05;22.50;;;9.17;;
54699;SDS011;40599;53.132;6.090;2022-08-03T10:46:32;23.37;;;8.93;;
54699;SDS011;40599;53.132;6.090;2022-08-03T10:48:58;25.27;;;8.37;;
54699;SDS011;40599;53.132;6.090;2022-08-03T10:53:54;25.23;;;10.47;;
54699;SDS011;40599;53.132;6.090;2022-08-03T11:02:02;21.13;;;8.37;;
54699;SDS011;40599;53.132;6.090;2022-08-03T11:04:32;26.83;;;8.23;;
54699;SDS011;40599;53.132;6.090;2022-08-03T11:07:20;24.87;;;8.43;;
54699;SDS011;40599;53.132;6.090;2022-08-03T11:09:51;23.27;;;7.40;;
54699;SDS011;40599;53.132;6.090;2022-08-03T11:12:20;25.27;;;8.30;;
54699;SDS011;40599;53.132;6.090;2022-08-03T11:14:46;21.27;;;7.20;;
54699;SDS011;40599;53.132;6.090;2022-08-03T11:17:13;23.90;;;8.40;;
54699;SDS011;40599;53.132;6.090;2022-08-03T11:19:43;17.85;;;6.47;;
54699;SDS011;40599;53.132;6.090;2022-08-03T11:22:09;17.93;;;6.20;;
54699;SDS011;40599;53.132;6.090;2022-08-03T11:37:31;19.05;;;6.55;;
54699;SDS011;40599;53.132;6.090;2022-08-03T11:39:57;22.40;;;7.05;;
54699;SDS011;40599;53.132;6.090;2022-08-03T11:44:57;24.57;;;6.67;;
54699;SDS011;40599;53.132;6.090;2022-08-03T11:47:23;28.70;;;6.90;;
54699;SDS011;40599;53.132;6.090;2022-08-03T11:49:52;26.07;;;7.27;;
54699;SDS011;40599;53.132;6.090;2022-08-03T11:52:19;25.17;;;6.23;;
54699;SDS011;40599;53.132;6.090;2022-08-03T11:57:11;21.07;;;6.20;;
54699;SDS011;40599;53.132;6.090;2022-08-03T12:02:06;22.03;;;6.57;;
54699;SDS011;40599;53.132;6.090;2022-08-03T12:04:48;29.03;;;6.07;;
54699;SDS011;40599;53.132;6.090;2022-08-03T12:07:15;23.03;;;6.80;;
54699;SDS011;40599;53.132;6.090;2022-08-03T12:09:42;25.43;;;5.87;;
54699;SDS011;40599;53.132;6.090;2022-08-03T12:12:08;32.17;;;6.60;;
54699;SDS011;40599;53.132;6.090;2022-08-03T12:17:00;27.87;;;6.83;;
54699;SDS011;40599;53.132;6.090;2022-08-03T12:21:52;39.50;;;6.13;;
54699;SDS011;40599;53.132;6.090;2022-08-03T12:24:18;21.58;;;5.20;;
54699;SDS011;40599;53.132;6.090;2022-08-03T12:29:17;25.20;;;5.97;;
54699;SDS011;40599;53.132;6.090;2022-08-03T12:31:43;21.20;;;6.37;;
54699;SDS011;40599;53.132;6.090;2022-08-03T12:36:36;20.08;;;6.47;;
54699;SDS011;40599;53.132;6.090;2022-08-03T12:39:06;19.70;;;6.63;;
54699;SDS011;40599;53.132;6.090;2022-08-03T12:41:36;25.90;;;6.40;;
54699;SDS011;40599;53.132;6.090;2022-08-03T12:44:03;23.93;;;6.30;;
54699;SDS011;40599;53.132;6.090;2022-08-03T12:46:33;27.27;;;7.40;;
54699;SDS011;40599;53.132;6.090;2022-08-03T12:53:52;19.67;;;5.87;;
54699;SDS011;40599;53.132;6.090;2022-08-03T12:56:19;22.77;;;6.50;;
54699;SDS011;40599;53.132;6.090;2022-08-03T12:58:45;28.20;;;7.43;;
54699;SDS011;40599;53.132;6.090;2022-08-03T13:01:17;18.40;;;6.17;;
54699;SDS011;40599;53.132;6.090;2022-08-03T13:03:47;27.13;;;6.47;;
54699;SDS011;40599;53.132;6.090;2022-08-03T13:06:13;20.43;;;7.47;;
54699;SDS011;40599;53.132;6.090;2022-08-03T13:08:40;27.70;;;7.10;;
54699;SDS011;40599;53.132;6.090;2022-08-03T13:14:02;26.53;;;7.30;;
54699;SDS011;40599;53.132;6.090;2022-08-03T13:18:54;25.73;;;7.53;;
54699;SDS011;40599;53.132;6.090;2022-08-03T13:23:46;20.93;;;6.53;;
54699;SDS011;40599;53.132;6.090;2022-08-03T13:26:13;14.60;;;6.00;;
54699;SDS011;40599;53.132;6.090;2022-08-03T13:31:05;34.03;;;7.03;;
54699;SDS011;40599;53.132;6.090;2022-08-03T13:33:32;19.63;;;6.60;;
54699;SDS011;40599;53.132;6.090;2022-08-03T13:38:24;21.33;;;6.90;;
54699;SDS011;40599;53.132;6.090;2022-08-03T13:43:16;23.70;;;6.65;;
54699;SDS011;40599;53.132;6.090;2022-08-03T13:48:08;18.13;;;5.73;;
54699;SDS011;40599;53.132;6.090;2022-08-03T13:50:34;20.73;;;6.33;;
54699;SDS011;40599;53.132;6.090;2022-08-03T13:55:27;22.03;;;6.90;;
54699;SDS011;40599;53.132;6.090;2022-08-03T14:00:19;21.53;;;6.27;;
54699;SDS011;40599;53.132;6.090;2022-08-03T14:02:49;17.33;;;6.07;;
54699;SDS011;40599;53.132;6.090;2022-08-03T14:07:41;23.27;;;6.67;;
54699;SDS011;40599;53.132;6.090;2022-08-03T14:10:08;20.70;;;5.97;;
54699;SDS011;40599;53.132;6.090;2022-08-03T14:12:35;21.40;;;6.53;;
54699;SDS011;40599;53.132;6.090;2022-08-03T14:17:27;19.73;;;6.57;;
54699;SDS011;40599;53.132;6.090;2022-08-03T14:22:22;23.60;;;5.73;;
54699;SDS011;40599;53.132;6.090;2022-08-03T14:27:14;19.43;;;5.87;;
54699;SDS011;40599;53.132;6.090;2022-08-03T14:29:40;20.13;;;5.68;;
54699;SDS011;40599;53.132;6.090;2022-08-03T14:34:32;19.50;;;6.10;;
54699;SDS011;40599;53.132;6.090;2022-08-03T14:39:24;20.83;;;5.97;;
54699;SDS011;40599;53.132;6.090;2022-08-03T14:44:16;21.33;;;5.93;;
54699;SDS011;40599;53.132;6.090;2022-08-03T14:49:08;20.33;;;5.90;;
54699;SDS011;40599;53.132;6.090;2022-08-03T14:51:34;18.93;;;5.63;;
54699;SDS011;40599;53.132;6.090;2022-08-03T14:56:26;18.30;;;5.80;;
54699;SDS011;40599;53.132;6.090;2022-08-03T15:01:18;19.10;;;6.10;;
54699;SDS011;40599;53.132;6.090;2022-08-03T15:06:12;17.67;;;7.13;;
54699;SDS011;40599;53.132;6.090;2022-08-03T15:08:38;18.97;;;7.20;;
54699;SDS011;40599;53.132;6.090;2022-08-03T15:13:30;18.13;;;6.30;;
54699;SDS011;40599;53.132;6.090;2022-08-03T15:15:56;21.87;;;7.93;;
54699;SDS011;40599;53.132;6.090;2022-08-03T15:20:48;14.37;;;5.63;;
54699;SDS011;40599;53.132;6.090;2022-08-03T15:23:14;17.80;;;5.80;;
54699;SDS011;40599;53.132;6.090;2022-08-03T15:25:44;20.30;;;6.57;;
54699;SDS011;40599;53.132;6.090;2022-08-03T15:28:11;14.67;;;6.00;;
54699;SDS011;40599;53.132;6.090;2022-08-03T15:33:03;15.77;;;6.80;;
54699;SDS011;40599;53.132;6.090;2022-08-03T15:35:30;17.57;;;6.23;;
54699;SDS011;40599;53.132;6.090;2022-08-03T15:37:57;17.30;;;6.53;;
54699;SDS011;40599;53.132;6.090;2022-08-03T15:42:49;17.93;;;6.57;;
54699;SDS011;40599;53.132;6.090;2022-08-03T15:47:41;18.07;;;6.60;;
54699;SDS011;40599;53.132;6.090;2022-08-03T15:52:33;22.57;;;6.73;;
54699;SDS011;40599;53.132;6.090;2022-08-03T15:57:25;20.47;;;6.33;;
54699;SDS011;40599;53.132;6.090;2022-08-03T16:02:17;22.77;;;8.17;;
54699;SDS011;40599;53.132;6.090;2022-08-03T16:04:43;22.30;;;6.53;;
54699;SDS011;40599;53.132;6.090;2022-08-03T16:07:09;21.37;;;7.43;;
54699;SDS011;40599;53.132;6.090;2022-08-03T16:09:36;20.97;;;6.80;;
54699;SDS011;40599;53.132;6.090;2022-08-03T16:14:28;23.17;;;6.20;;
54699;SDS011;40599;53.132;6.090;2022-08-03T16:19:20;18.20;;;5.90;;
54699;SDS011;40599;53.132;6.090;2022-08-03T16:24:12;19.27;;;6.03;;
54699;SDS011;40599;53.132;6.090;2022-08-03T16:29:04;17.40;;;5.83;;
54699;SDS011;40599;53.132;6.090;2022-08-03T16:33:56;15.47;;;5.70;;
54699;SDS011;40599;53.132;6.090;2022-08-03T16:36:22;16.20;;;4.67;;
54699;SDS011;40599;53.132;6.090;2022-08-03T16:38:49;16.70;;;4.97;;
54699;SDS011;40599;53.132;6.090;2022-08-03T16:41:15;20.47;;;5.47;;
54699;SDS011;40599;53.132;6.090;2022-08-03T16:46:07;19.37;;;4.93;;
54699;SDS011;40599;53.132;6.090;2022-08-03T16:50:59;24.60;;;5.80;;
54699;SDS011;40599;53.132;6.090;2022-08-03T16:53:26;18.73;;;5.23;;
54699;SDS011;40599;53.132;6.090;2022-08-03T16:58:19;19.10;;;4.82;;
54699;SDS011;40599;53.132;6.090;2022-08-03T17:00:45;20.67;;;5.27;;
54699;SDS011;40599;53.132;6.090;2022-08-03T17:05:37;21.20;;;5.10;;
54699;SDS011;40599;53.132;6.090;2022-08-03T17:10:29;21.17;;;4.73;;
54699;SDS011;40599;53.132;6.090;2022-08-03T17:15:21;22.87;;;5.10;;
54699;SDS011;40599;53.132;6.090;2022-08-03T17:20:13;19.43;;;6.17;;
54699;SDS011;40599;53.132;6.090;2022-08-03T17:22:45;16.33;;;4.90;;
54699;SDS011;40599;53.132;6.090;2022-08-03T17:25:12;20.63;;;4.90;;
54699;SDS011;40599;53.132;6.090;2022-08-03T17:30:06;23.10;;;4.77;;
54699;SDS011;40599;53.132;6.090;2022-08-03T17:32:33;19.80;;;4.90;;
54699;SDS011;40599;53.132;6.090;2022-08-03T17:35:02;21.27;;;5.37;;
54699;SDS011;40599;53.132;6.090;2022-08-03T17:37:28;22.20;;;5.30;;
54699;SDS011;40599;53.132;6.090;2022-08-03T17:39:54;16.97;;;4.53;;
54699;SDS011;40599;53.132;6.090;2022-08-03T17:42:21;16.98;;;4.90;;
54699;SDS011;40599;53.132;6.090;2022-08-03T17:44:49;20.67;;;4.63;;
54699;SDS011;40599;53.132;6.090;2022-08-03T17:47:15;22.27;;;4.83;;
54699;SDS011;40599;53.132;6.090;2022-08-03T17:49:41;20.70;;;4.80;;
54699;SDS011;40599;53.132;6.090;2022-08-03T17:55:02;23.43;;;4.77;;